This is the latest recevied weather packets stored in our database for station/object DM5KA-13. If no packets are shown the sender has not sent any weather packets the latest 10 day(s).
| Time | Temp. | Humidity | Pressure | Rain* | Wind** | Luminosity | Snow |
|---|---|---|---|---|---|---|---|
| 1777538708 | 13.89° C | 26% | 1034.7 hPa | 0 mm | 0.45 m/s, 0° | - | - |
| 1777538407 | 13.89° C | 25% | 1034.7 hPa | 0 mm | 0 m/s | - | - |
| 1777538107 | 12.78° C | 28% | 1034.8 hPa | 0 mm | 0.45 m/s, 0° | - | - |
| 1777537807 | 12.22° C | 27% | 1034.8 hPa | 0 mm | 0.45 m/s, 0° | - | - |
| 1777537507 | 12.78° C | 28% | 1034.8 hPa | 0 mm | 0.45 m/s, 0° | - | - |
| 1777537207 | 12.78° C | 28% | 1034.8 hPa | 0 mm | 0.45 m/s, 0° | - | - |
| 1777536907 | 12.22° C | 29% | 1034.8 hPa | 0 mm | 0.45 m/s, 0° | - | - |
| 1777536607 | 12.22° C | 30% | 1034.8 hPa | 0 mm | 0.45 m/s, 0° | - | - |
| 1777536319 | 12.22° C | 31% | 1034.7 hPa | 0 mm | 0.45 m/s, 0° | - | - |
| 1777536019 | 12.22° C | 30% | 1034.8 hPa | 0 mm | 0.45 m/s, 0° | - | - |
| 1777535719 | 12.22° C | 31% | 1034.8 hPa | 0 mm | 0.45 m/s, 0° | - | - |
| 1777535419 | 11.11° C | 34% | 1034.9 hPa | 0 mm | 0 m/s | - | - |
| 1777535119 | 11.11° C | 34% | 1035 hPa | 0 mm | 0 m/s | - | - |
| 1777534819 | 10° C | 35% | 1035 hPa | 0 mm | 0.45 m/s, 0° | - | - |
| 1777534519 | 11.11° C | 33% | 1035 hPa | 0 mm | 0.45 m/s, 0° | - | - |
| 1777534219 | 11.11° C | 33% | 1035 hPa | 0 mm | 0.45 m/s, 0° | - | - |
| 1777533919 | 11.11° C | 34% | 1035 hPa | 0 mm | 0.45 m/s, 0° | - | - |
| 1777533619 | 10° C | 35% | 1035 hPa | 0 mm | 0.45 m/s, 0° | - | - |
| 1777533319 | 10° C | 37% | 1035.1 hPa | 0 mm | 0.45 m/s, 0° | - | - |
| 1777533019 | 8.89° C | 37% | 1035.1 hPa | 0 mm | 0 m/s | - | - |
| 1777532720 | 8.89° C | 39% | 1035 hPa | 0 mm | 0.45 m/s, 0° | - | - |
| 1777532420 | 8.89° C | 38% | 1035 hPa | 0 mm | 0.45 m/s, 0° | - | - |
| 1777532119 | 8.89° C | 39% | 1035 hPa | 0 mm | 0 m/s | - | - |
| 1777531819 | 8.89° C | 40% | 1034.9 hPa | 0 mm | 0.45 m/s, 0° | - | - |
| 1777531531 | 7.78° C | 41% | 1034.8 hPa | 0 mm | 0.45 m/s, 0° | - | - |
* Rain latest hour (hover to see other rain measurements)
** Current wind speed in m/s (hover to see current wind gust speed)